sensor_id;sensor_type;location;lat;lon;timestamp;P1;durP1;ratioP1;P2;durP2;ratioP2
10277;SDS011;5184;51.376;7.148;2023-01-05T00:00:54;17.00;;;4.37;;
10277;SDS011;5184;51.376;7.148;2023-01-05T00:03:21;14.87;;;3.87;;
10277;SDS011;5184;51.376;7.148;2023-01-05T00:05:48;20.93;;;5.00;;
10277;SDS011;5184;51.376;7.148;2023-01-05T00:08:15;17.93;;;4.40;;
10277;SDS011;5184;51.376;7.148;2023-01-05T00:10:42;12.40;;;4.37;;
10277;SDS011;5184;51.376;7.148;2023-01-05T00:13:15;17.37;;;5.03;;
10277;SDS011;5184;51.376;7.148;2023-01-05T00:15:48;21.53;;;4.97;;
10277;SDS011;5184;51.376;7.148;2023-01-05T00:18:21;18.63;;;4.67;;
10277;SDS011;5184;51.376;7.148;2023-01-05T00:20:53;17.13;;;4.93;;
10277;SDS011;5184;51.376;7.148;2023-01-05T00:23:26;17.63;;;4.73;;
10277;SDS011;5184;51.376;7.148;2023-01-05T00:25:53;14.53;;;4.40;;
10277;SDS011;5184;51.376;7.148;2023-01-05T00:28:20;15.77;;;3.93;;
10277;SDS011;5184;51.376;7.148;2023-01-05T00:30:47;16.93;;;4.77;;
10277;SDS011;5184;51.376;7.148;2023-01-05T00:33:15;17.80;;;5.07;;
10277;SDS011;5184;51.376;7.148;2023-01-05T00:35:41;15.03;;;4.50;;
10277;SDS011;5184;51.376;7.148;2023-01-05T00:38:07;20.03;;;5.00;;
10277;SDS011;5184;51.376;7.148;2023-01-05T00:40:34;14.63;;;4.57;;
10277;SDS011;5184;51.376;7.148;2023-01-05T00:43:02;25.47;;;5.43;;
10277;SDS011;5184;51.376;7.148;2023-01-05T00:45:29;21.70;;;5.20;;
10277;SDS011;5184;51.376;7.148;2023-01-05T00:47:56;14.57;;;4.17;;
10277;SDS011;5184;51.376;7.148;2023-01-05T00:50:23;18.77;;;4.70;;
10277;SDS011;5184;51.376;7.148;2023-01-05T00:52:50;22.70;;;5.80;;
10277;SDS011;5184;51.376;7.148;2023-01-05T00:55:17;17.47;;;5.33;;
10277;SDS011;5184;51.376;7.148;2023-01-05T00:57:43;19.33;;;5.13;;
10277;SDS011;5184;51.376;7.148;2023-01-05T01:00:12;17.97;;;5.00;;
10277;SDS011;5184;51.376;7.148;2023-01-05T01:02:38;17.57;;;4.47;;
10277;SDS011;5184;51.376;7.148;2023-01-05T01:05:06;22.73;;;5.57;;
10277;SDS011;5184;51.376;7.148;2023-01-05T01:07:33;22.80;;;5.60;;
10277;SDS011;5184;51.376;7.148;2023-01-05T01:09:59;15.27;;;5.20;;
10277;SDS011;5184;51.376;7.148;2023-01-05T01:12:26;22.73;;;6.30;;
10277;SDS011;5184;51.376;7.148;2023-01-05T01:14:52;21.37;;;5.33;;
10277;SDS011;5184;51.376;7.148;2023-01-05T01:17:19;20.83;;;5.53;;
10277;SDS011;5184;51.376;7.148;2023-01-05T01:19:46;23.27;;;5.27;;
10277;SDS011;5184;51.376;7.148;2023-01-05T01:22:14;23.63;;;5.53;;
10277;SDS011;5184;51.376;7.148;2023-01-05T01:24:40;19.50;;;5.00;;
10277;SDS011;5184;51.376;7.148;2023-01-05T01:27:07;19.40;;;5.90;;
10277;SDS011;5184;51.376;7.148;2023-01-05T01:29:34;19.70;;;5.77;;
10277;SDS011;5184;51.376;7.148;2023-01-05T01:32:01;18.00;;;5.90;;
10277;SDS011;5184;51.376;7.148;2023-01-05T01:34:28;21.90;;;5.97;;
10277;SDS011;5184;51.376;7.148;2023-01-05T01:36:56;16.60;;;5.10;;
10277;SDS011;5184;51.376;7.148;2023-01-05T01:39:22;16.80;;;5.30;;
10277;SDS011;5184;51.376;7.148;2023-01-05T01:41:49;18.93;;;5.53;;
10277;SDS011;5184;51.376;7.148;2023-01-05T01:46:54;17.97;;;5.23;;
10277;SDS011;5184;51.376;7.148;2023-01-05T01:49:20;18.67;;;5.43;;
10277;SDS011;5184;51.376;7.148;2023-01-05T01:51:47;18.10;;;5.07;;
10277;SDS011;5184;51.376;7.148;2023-01-05T01:54:15;15.97;;;4.93;;
10277;SDS011;5184;51.376;7.148;2023-01-05T01:56:51;19.53;;;5.03;;
10277;SDS011;5184;51.376;7.148;2023-01-05T01:59:19;17.70;;;5.30;;
10277;SDS011;5184;51.376;7.148;2023-01-05T02:01:46;24.00;;;5.33;;
10277;SDS011;5184;51.376;7.148;2023-01-05T02:04:12;21.93;;;5.33;;
10277;SDS011;5184;51.376;7.148;2023-01-05T02:06:39;19.77;;;5.00;;
10277;SDS011;5184;51.376;7.148;2023-01-05T02:09:05;16.53;;;5.20;;
10277;SDS011;5184;51.376;7.148;2023-01-05T02:11:37;20.90;;;5.30;;
10277;SDS011;5184;51.376;7.148;2023-01-05T02:14:20;16.40;;;4.90;;
10277;SDS011;5184;51.376;7.148;2023-01-05T02:16:52;17.47;;;5.23;;
10277;SDS011;5184;51.376;7.148;2023-01-05T02:26:19;16.57;;;5.10;;
10277;SDS011;5184;51.376;7.148;2023-01-05T02:27:58;14.53;;;5.03;;
10277;SDS011;5184;51.376;7.148;2023-01-05T02:30:46;18.60;;;5.03;;
10277;SDS011;5184;51.376;7.148;2023-01-05T02:36:03;19.33;;;5.13;;
10277;SDS011;5184;51.376;7.148;2023-01-05T02:38:33;20.10;;;5.70;;
10277;SDS011;5184;51.376;7.148;2023-01-05T02:41:02;23.50;;;6.17;;
10277;SDS011;5184;51.376;7.148;2023-01-05T02:43:26;19.47;;;5.70;;
10277;SDS011;5184;51.376;7.148;2023-01-05T02:45:52;16.57;;;5.87;;
10277;SDS011;5184;51.376;7.148;2023-01-05T02:48:19;18.27;;;5.80;;
10277;SDS011;5184;51.376;7.148;2023-01-05T02:50:48;20.00;;;5.50;;
10277;SDS011;5184;51.376;7.148;2023-01-05T02:53:21;21.83;;;5.93;;
10277;SDS011;5184;51.376;7.148;2023-01-05T02:55:51;19.67;;;5.33;;
10277;SDS011;5184;51.376;7.148;2023-01-05T02:58:19;16.93;;;5.83;;
10277;SDS011;5184;51.376;7.148;2023-01-05T03:00:46;17.13;;;5.60;;
10277;SDS011;5184;51.376;7.148;2023-01-05T03:03:15;21.77;;;5.50;;
10277;SDS011;5184;51.376;7.148;2023-01-05T03:05:47;24.10;;;5.83;;
10277;SDS011;5184;51.376;7.148;2023-01-05T03:08:20;17.83;;;5.80;;
10277;SDS011;5184;51.376;7.148;2023-01-05T03:13:34;19.73;;;6.07;;
10277;SDS011;5184;51.376;7.148;2023-01-05T03:16:09;29.03;;;6.70;;
10277;SDS011;5184;51.376;7.148;2023-01-05T03:18:35;19.53;;;6.40;;
10277;SDS011;5184;51.376;7.148;2023-01-05T03:21:03;17.73;;;6.60;;
10277;SDS011;5184;51.376;7.148;2023-01-05T03:23:30;23.30;;;6.70;;
10277;SDS011;5184;51.376;7.148;2023-01-05T03:26:03;18.00;;;6.03;;
10277;SDS011;5184;51.376;7.148;2023-01-05T03:28:39;17.47;;;6.70;;
10277;SDS011;5184;51.376;7.148;2023-01-05T03:31:14;17.90;;;5.90;;
10277;SDS011;5184;51.376;7.148;2023-01-05T03:34:19;23.77;;;6.07;;
10277;SDS011;5184;51.376;7.148;2023-01-05T03:36:36;19.87;;;5.60;;
10277;SDS011;5184;51.376;7.148;2023-01-05T03:39:02;21.60;;;6.03;;
10277;SDS011;5184;51.376;7.148;2023-01-05T03:41:29;26.50;;;6.70;;
10277;SDS011;5184;51.376;7.148;2023-01-05T03:43:56;20.20;;;6.37;;
10277;SDS011;5184;51.376;7.148;2023-01-05T03:46:23;23.57;;;6.73;;
10277;SDS011;5184;51.376;7.148;2023-01-05T03:48:51;21.40;;;6.27;;
10277;SDS011;5184;51.376;7.148;2023-01-05T03:51:18;21.33;;;5.53;;
10277;SDS011;5184;51.376;7.148;2023-01-05T03:53:44;22.83;;;6.17;;
10277;SDS011;5184;51.376;7.148;2023-01-05T03:56:12;17.57;;;5.60;;
10277;SDS011;5184;51.376;7.148;2023-01-05T03:58:39;17.47;;;5.77;;
10277;SDS011;5184;51.376;7.148;2023-01-05T04:01:06;19.73;;;5.90;;
10277;SDS011;5184;51.376;7.148;2023-01-05T04:03:34;19.67;;;6.03;;
10277;SDS011;5184;51.376;7.148;2023-01-05T04:06:00;16.17;;;5.70;;
10277;SDS011;5184;51.376;7.148;2023-01-05T04:08:27;20.43;;;6.17;;
10277;SDS011;5184;51.376;7.148;2023-01-05T04:10:53;21.23;;;6.93;;
10277;SDS011;5184;51.376;7.148;2023-01-05T04:13:21;23.70;;;5.80;;
10277;SDS011;5184;51.376;7.148;2023-01-05T04:15:48;18.40;;;5.83;;
10277;SDS011;5184;51.376;7.148;2023-01-05T04:18:15;16.70;;;6.00;;
10277;SDS011;5184;51.376;7.148;2023-01-05T04:20:42;19.70;;;6.70;;
10277;SDS011;5184;51.376;7.148;2023-01-05T04:23:09;21.50;;;6.17;;
10277;SDS011;5184;51.376;7.148;2023-01-05T04:25:35;22.10;;;7.00;;
10277;SDS011;5184;51.376;7.148;2023-01-05T04:28:02;22.13;;;7.07;;
10277;SDS011;5184;51.376;7.148;2023-01-05T04:30:29;25.37;;;6.93;;
10277;SDS011;5184;51.376;7.148;2023-01-05T04:32:56;21.27;;;6.70;;
10277;SDS011;5184;51.376;7.148;2023-01-05T04:35:22;22.87;;;6.43;;
10277;SDS011;5184;51.376;7.148;2023-01-05T04:37:49;20.27;;;5.70;;
10277;SDS011;5184;51.376;7.148;2023-01-05T04:40:16;19.43;;;5.93;;
10277;SDS011;5184;51.376;7.148;2023-01-05T04:42:42;19.43;;;5.80;;
10277;SDS011;5184;51.376;7.148;2023-01-05T04:45:10;19.70;;;6.37;;
10277;SDS011;5184;51.376;7.148;2023-01-05T04:47:37;20.20;;;6.80;;
10277;SDS011;5184;51.376;7.148;2023-01-05T04:50:04;19.73;;;6.70;;
10277;SDS011;5184;51.376;7.148;2023-01-05T04:52:32;14.53;;;6.27;;
10277;SDS011;5184;51.376;7.148;2023-01-05T04:54:59;19.43;;;7.37;;
10277;SDS011;5184;51.376;7.148;2023-01-05T04:57:26;23.53;;;7.37;;
10277;SDS011;5184;51.376;7.148;2023-01-05T04:59:53;20.03;;;6.10;;
10277;SDS011;5184;51.376;7.148;2023-01-05T05:02:19;19.50;;;6.47;;
10277;SDS011;5184;51.376;7.148;2023-01-05T05:04:46;18.53;;;6.80;;
10277;SDS011;5184;51.376;7.148;2023-01-05T05:07:12;23.60;;;7.60;;
10277;SDS011;5184;51.376;7.148;2023-01-05T05:09:39;18.40;;;7.60;;
10277;SDS011;5184;51.376;7.148;2023-01-05T05:12:06;20.53;;;9.07;;
10277;SDS011;5184;51.376;7.148;2023-01-05T05:14:33;20.50;;;7.77;;
10277;SDS011;5184;51.376;7.148;2023-01-05T05:17:00;21.13;;;8.23;;
10277;SDS011;5184;51.376;7.148;2023-01-05T05:19:28;25.10;;;7.13;;
10277;SDS011;5184;51.376;7.148;2023-01-05T05:21:54;21.53;;;7.10;;
10277;SDS011;5184;51.376;7.148;2023-01-05T05:24:21;28.13;;;8.03;;
10277;SDS011;5184;51.376;7.148;2023-01-05T05:26:48;21.37;;;8.13;;
10277;SDS011;5184;51.376;7.148;2023-01-05T05:29:14;21.40;;;7.10;;
10277;SDS011;5184;51.376;7.148;2023-01-05T05:31:41;24.83;;;6.40;;
10277;SDS011;5184;51.376;7.148;2023-01-05T05:34:08;22.80;;;6.70;;
10277;SDS011;5184;51.376;7.148;2023-01-05T05:36:35;24.07;;;7.10;;
10277;SDS011;5184;51.376;7.148;2023-01-05T05:39:03;25.07;;;6.50;;
10277;SDS011;5184;51.376;7.148;2023-01-05T05:41:29;22.13;;;6.53;;
10277;SDS011;5184;51.376;7.148;2023-01-05T05:43:58;24.77;;;7.60;;
10277;SDS011;5184;51.376;7.148;2023-01-05T05:46:25;20.90;;;7.03;;
10277;SDS011;5184;51.376;7.148;2023-01-05T05:48:53;26.10;;;7.57;;
10277;SDS011;5184;51.376;7.148;2023-01-05T05:51:19;20.13;;;7.83;;
10277;SDS011;5184;51.376;7.148;2023-01-05T05:53:46;25.17;;;7.63;;
10277;SDS011;5184;51.376;7.148;2023-01-05T05:56:13;31.47;;;7.70;;
10277;SDS011;5184;51.376;7.148;2023-01-05T05:58:40;23.87;;;6.80;;
10277;SDS011;5184;51.376;7.148;2023-01-05T06:01:07;25.93;;;6.70;;
10277;SDS011;5184;51.376;7.148;2023-01-05T06:03:34;26.97;;;7.33;;
10277;SDS011;5184;51.376;7.148;2023-01-05T06:06:02;29.03;;;8.27;;
10277;SDS011;5184;51.376;7.148;2023-01-05T06:08:29;28.23;;;7.80;;
10277;SDS011;5184;51.376;7.148;2023-01-05T06:10:56;22.40;;;7.43;;
10277;SDS011;5184;51.376;7.148;2023-01-05T06:13:23;26.57;;;7.00;;
10277;SDS011;5184;51.376;7.148;2023-01-05T06:15:49;28.70;;;7.87;;
10277;SDS011;5184;51.376;7.148;2023-01-05T06:18:16;19.37;;;6.33;;
10277;SDS011;5184;51.376;7.148;2023-01-05T06:20:42;24.20;;;7.70;;
10277;SDS011;5184;51.376;7.148;2023-01-05T06:23:09;27.20;;;7.57;;
10277;SDS011;5184;51.376;7.148;2023-01-05T06:25:37;21.73;;;6.90;;
10277;SDS011;5184;51.376;7.148;2023-01-05T06:28:04;24.97;;;8.27;;
10277;SDS011;5184;51.376;7.148;2023-01-05T06:30:32;26.67;;;7.37;;
10277;SDS011;5184;51.376;7.148;2023-01-05T06:32:58;30.70;;;8.63;;
10277;SDS011;5184;51.376;7.148;2023-01-05T06:35:25;26.90;;;8.17;;
10277;SDS011;5184;51.376;7.148;2023-01-05T06:37:51;23.27;;;7.80;;
10277;SDS011;5184;51.376;7.148;2023-01-05T06:40:18;26.20;;;7.93;;
10277;SDS011;5184;51.376;7.148;2023-01-05T06:42:45;20.43;;;7.90;;
10277;SDS011;5184;51.376;7.148;2023-01-05T06:45:13;27.03;;;8.60;;
10277;SDS011;5184;51.376;7.148;2023-01-05T06:47:39;29.13;;;9.37;;
10277;SDS011;5184;51.376;7.148;2023-01-05T06:50:07;27.13;;;9.23;;
10277;SDS011;5184;51.376;7.148;2023-01-05T06:52:34;29.10;;;9.13;;
10277;SDS011;5184;51.376;7.148;2023-01-05T06:55:03;32.23;;;10.40;;
10277;SDS011;5184;51.376;7.148;2023-01-05T06:57:31;26.37;;;9.07;;
10277;SDS011;5184;51.376;7.148;2023-01-05T06:59:59;26.37;;;9.43;;
10277;SDS011;5184;51.376;7.148;2023-01-05T07:02:25;29.37;;;9.83;;
10277;SDS011;5184;51.376;7.148;2023-01-05T07:04:52;29.83;;;9.50;;
10277;SDS011;5184;51.376;7.148;2023-01-05T07:07:18;32.60;;;9.87;;
10277;SDS011;5184;51.376;7.148;2023-01-05T07:09:45;26.13;;;9.80;;
10277;SDS011;5184;51.376;7.148;2023-01-05T07:12:12;33.53;;;9.57;;
10277;SDS011;5184;51.376;7.148;2023-01-05T07:14:39;29.60;;;9.50;;
10277;SDS011;5184;51.376;7.148;2023-01-05T07:17:06;27.87;;;9.23;;
10277;SDS011;5184;51.376;7.148;2023-01-05T07:19:34;29.37;;;10.53;;
10277;SDS011;5184;51.376;7.148;2023-01-05T07:22:00;30.93;;;10.07;;
10277;SDS011;5184;51.376;7.148;2023-01-05T07:24:27;34.93;;;10.23;;
10277;SDS011;5184;51.376;7.148;2023-01-05T07:26:53;29.73;;;10.17;;
10277;SDS011;5184;51.376;7.148;2023-01-05T07:29:21;37.70;;;10.30;;
10277;SDS011;5184;51.376;7.148;2023-01-05T07:31:48;30.63;;;10.37;;
10277;SDS011;5184;51.376;7.148;2023-01-05T07:34:16;29.30;;;11.13;;
10277;SDS011;5184;51.376;7.148;2023-01-05T07:36:43;32.70;;;10.77;;
10277;SDS011;5184;51.376;7.148;2023-01-05T07:39:10;28.40;;;9.50;;
10277;SDS011;5184;51.376;7.148;2023-01-05T07:41:36;25.30;;;9.23;;
10277;SDS011;5184;51.376;7.148;2023-01-05T07:44:03;29.13;;;9.53;;
10277;SDS011;5184;51.376;7.148;2023-01-05T07:46:29;29.60;;;9.43;;
10277;SDS011;5184;51.376;7.148;2023-01-05T07:48:56;27.77;;;9.30;;
10277;SDS011;5184;51.376;7.148;2023-01-05T07:51:23;32.40;;;8.77;;
10277;SDS011;5184;51.376;7.148;2023-01-05T07:53:51;28.93;;;9.87;;
10277;SDS011;5184;51.376;7.148;2023-01-05T07:56:17;26.60;;;9.50;;
10277;SDS011;5184;51.376;7.148;2023-01-05T07:58:45;28.00;;;8.57;;
10277;SDS011;5184;51.376;7.148;2023-01-05T08:01:13;24.73;;;9.50;;
10277;SDS011;5184;51.376;7.148;2023-01-05T08:03:39;33.80;;;10.47;;
10277;SDS011;5184;51.376;7.148;2023-01-05T08:06:08;31.73;;;9.07;;
10277;SDS011;5184;51.376;7.148;2023-01-05T08:08:33;25.10;;;9.17;;
10277;SDS011;5184;51.376;7.148;2023-01-05T08:11:02;32.50;;;9.60;;
10277;SDS011;5184;51.376;7.148;2023-01-05T08:13:30;32.80;;;9.30;;
10277;SDS011;5184;51.376;7.148;2023-01-05T08:16:02;37.10;;;9.97;;
10277;SDS011;5184;51.376;7.148;2023-01-05T08:18:29;28.87;;;10.37;;
10277;SDS011;5184;51.376;7.148;2023-01-05T08:20:56;27.00;;;9.10;;
10277;SDS011;5184;51.376;7.148;2023-01-05T08:23:23;29.30;;;9.73;;
10277;SDS011;5184;51.376;7.148;2023-01-05T08:25:50;29.70;;;9.93;;
10277;SDS011;5184;51.376;7.148;2023-01-05T08:28:17;33.17;;;10.57;;
10277;SDS011;5184;51.376;7.148;2023-01-05T08:30:44;25.77;;;9.40;;
10277;SDS011;5184;51.376;7.148;2023-01-05T08:33:11;28.67;;;10.80;;
10277;SDS011;5184;51.376;7.148;2023-01-05T08:35:40;29.20;;;10.17;;
10277;SDS011;5184;51.376;7.148;2023-01-05T08:38:07;31.93;;;10.27;;
10277;SDS011;5184;51.376;7.148;2023-01-05T08:40:35;37.40;;;10.37;;
10277;SDS011;5184;51.376;7.148;2023-01-05T08:43:03;36.73;;;10.80;;
10277;SDS011;5184;51.376;7.148;2023-01-05T08:45:29;30.97;;;9.63;;
10277;SDS011;5184;51.376;7.148;2023-01-05T08:47:55;35.93;;;9.73;;
10277;SDS011;5184;51.376;7.148;2023-01-05T08:50:22;35.60;;;10.57;;
10277;SDS011;5184;51.376;7.148;2023-01-05T08:52:49;28.37;;;9.23;;
10277;SDS011;5184;51.376;7.148;2023-01-05T08:55:16;32.37;;;10.47;;
10277;SDS011;5184;51.376;7.148;2023-01-05T08:57:42;35.20;;;10.47;;
10277;SDS011;5184;51.376;7.148;2023-01-05T09:00:10;28.73;;;9.60;;
10277;SDS011;5184;51.376;7.148;2023-01-05T09:02:38;32.07;;;10.40;;
10277;SDS011;5184;51.376;7.148;2023-01-05T09:05:05;32.67;;;11.50;;
10277;SDS011;5184;51.376;7.148;2023-01-05T09:07:32;40.47;;;11.90;;
10277;SDS011;5184;51.376;7.148;2023-01-05T09:09:58;31.60;;;10.60;;
10277;SDS011;5184;51.376;7.148;2023-01-05T09:12:25;35.03;;;10.63;;
10277;SDS011;5184;51.376;7.148;2023-01-05T09:14:51;30.77;;;10.90;;
10277;SDS011;5184;51.376;7.148;2023-01-05T09:17:19;28.20;;;10.37;;
10277;SDS011;5184;51.376;7.148;2023-01-05T09:19:45;32.07;;;11.50;;
10277;SDS011;5184;51.376;7.148;2023-01-05T09:22:13;35.10;;;10.47;;
10277;SDS011;5184;51.376;7.148;2023-01-05T09:24:41;33.30;;;10.60;;
10277;SDS011;5184;51.376;7.148;2023-01-05T09:27:07;32.87;;;11.43;;
10277;SDS011;5184;51.376;7.148;2023-01-05T09:29:34;35.60;;;11.97;;
10277;SDS011;5184;51.376;7.148;2023-01-05T09:32:01;31.47;;;11.90;;
10277;SDS011;5184;51.376;7.148;2023-01-05T09:34:27;34.50;;;10.93;;
10277;SDS011;5184;51.376;7.148;2023-01-05T09:36:54;35.80;;;10.63;;
10277;SDS011;5184;51.376;7.148;2023-01-05T09:39:20;36.67;;;9.83;;
10277;SDS011;5184;51.376;7.148;2023-01-05T09:41:49;31.20;;;10.67;;
10277;SDS011;5184;51.376;7.148;2023-01-05T09:44:35;28.43;;;9.53;;
10277;SDS011;5184;51.376;7.148;2023-01-05T09:47:02;36.50;;;11.10;;
10277;SDS011;5184;51.376;7.148;2023-01-05T09:49:28;32.07;;;9.60;;
10277;SDS011;5184;51.376;7.148;2023-01-05T09:51:57;30.67;;;9.20;;
10277;SDS011;5184;51.376;7.148;2023-01-05T09:54:23;31.47;;;9.63;;
10277;SDS011;5184;51.376;7.148;2023-01-05T09:56:50;36.20;;;10.47;;
10277;SDS011;5184;51.376;7.148;2023-01-05T09:59:18;31.93;;;10.83;;
10277;SDS011;5184;51.376;7.148;2023-01-05T10:01:44;39.17;;;10.33;;
10277;SDS011;5184;51.376;7.148;2023-01-05T10:04:14;32.77;;;10.70;;
10277;SDS011;5184;51.376;7.148;2023-01-05T10:06:42;27.40;;;9.63;;
10277;SDS011;5184;51.376;7.148;2023-01-05T10:09:09;32.40;;;9.90;;
10277;SDS011;5184;51.376;7.148;2023-01-05T10:11:38;31.73;;;9.60;;
10277;SDS011;5184;51.376;7.148;2023-01-05T10:14:14;28.63;;;9.37;;
10277;SDS011;5184;51.376;7.148;2023-01-05T10:16:40;30.60;;;9.00;;
10277;SDS011;5184;51.376;7.148;2023-01-05T10:19:09;33.33;;;9.00;;
10277;SDS011;5184;51.376;7.148;2023-01-05T10:21:39;29.20;;;9.60;;
10277;SDS011;5184;51.376;7.148;2023-01-05T10:24:11;26.87;;;8.90;;
10277;SDS011;5184;51.376;7.148;2023-01-05T10:26:42;34.23;;;10.00;;
10277;SDS011;5184;51.376;7.148;2023-01-05T10:29:08;31.10;;;7.73;;
10277;SDS011;5184;51.376;7.148;2023-01-05T10:31:43;26.17;;;8.80;;
10277;SDS011;5184;51.376;7.148;2023-01-05T10:34:13;32.20;;;9.47;;
10277;SDS011;5184;51.376;7.148;2023-01-05T10:36:44;34.07;;;9.37;;
10277;SDS011;5184;51.376;7.148;2023-01-05T10:39:19;30.33;;;9.50;;
10277;SDS011;5184;51.376;7.148;2023-01-05T10:42:02;26.43;;;9.07;;
10277;SDS011;5184;51.376;7.148;2023-01-05T10:44:33;27.43;;;9.27;;
10277;SDS011;5184;51.376;7.148;2023-01-05T10:46:59;34.47;;;10.20;;
10277;SDS011;5184;51.376;7.148;2023-01-05T10:49:27;36.67;;;9.73;;
10277;SDS011;5184;51.376;7.148;2023-01-05T10:51:54;27.40;;;9.30;;
10277;SDS011;5184;51.376;7.148;2023-01-05T10:54:35;30.93;;;9.40;;
10277;SDS011;5184;51.376;7.148;2023-01-05T10:57:34;29.40;;;9.43;;
10277;SDS011;5184;51.376;7.148;2023-01-05T10:59:53;30.10;;;10.60;;
10277;SDS011;5184;51.376;7.148;2023-01-05T11:02:18;34.83;;;10.00;;
10277;SDS011;5184;51.376;7.148;2023-01-05T11:04:45;27.50;;;9.30;;
10277;SDS011;5184;51.376;7.148;2023-01-05T11:07:12;26.40;;;9.03;;
10277;SDS011;5184;51.376;7.148;2023-01-05T11:09:39;33.13;;;8.47;;
10277;SDS011;5184;51.376;7.148;2023-01-05T11:12:12;30.53;;;9.30;;
10277;SDS011;5184;51.376;7.148;2023-01-05T11:14:33;27.60;;;9.27;;
10277;SDS011;5184;51.376;7.148;2023-01-05T11:17:00;24.40;;;9.87;;
10277;SDS011;5184;51.376;7.148;2023-01-05T11:19:28;25.30;;;10.03;;
10277;SDS011;5184;51.376;7.148;2023-01-05T11:21:55;25.93;;;8.50;;
10277;SDS011;5184;51.376;7.148;2023-01-05T11:24:27;24.70;;;8.50;;
10277;SDS011;5184;51.376;7.148;2023-01-05T11:26:53;25.23;;;9.10;;
10277;SDS011;5184;51.376;7.148;2023-01-05T11:29:19;25.33;;;8.50;;
10277;SDS011;5184;51.376;7.148;2023-01-05T11:31:49;22.87;;;8.70;;
10277;SDS011;5184;51.376;7.148;2023-01-05T11:34:41;25.87;;;8.23;;
10277;SDS011;5184;51.376;7.148;2023-01-05T11:37:26;25.17;;;8.50;;
10277;SDS011;5184;51.376;7.148;2023-01-05T11:39:53;25.17;;;8.07;;
10277;SDS011;5184;51.376;7.148;2023-01-05T11:42:29;20.50;;;8.37;;
10277;SDS011;5184;51.376;7.148;2023-01-05T11:45:02;27.77;;;7.20;;
10277;SDS011;5184;51.376;7.148;2023-01-05T11:47:31;26.80;;;8.03;;
10277;SDS011;5184;51.376;7.148;2023-01-05T11:49:57;24.60;;;8.83;;
10277;SDS011;5184;51.376;7.148;2023-01-05T11:52:24;29.77;;;8.80;;
10277;SDS011;5184;51.376;7.148;2023-01-05T11:54:50;21.07;;;7.90;;
10277;SDS011;5184;51.376;7.148;2023-01-05T11:57:18;26.17;;;9.00;;
10277;SDS011;5184;51.376;7.148;2023-01-05T11:59:45;24.50;;;8.30;;
10277;SDS011;5184;51.376;7.148;2023-01-05T12:05:24;25.83;;;7.83;;
10277;SDS011;5184;51.376;7.148;2023-01-05T12:08:13;26.40;;;8.27;;
10277;SDS011;5184;51.376;7.148;2023-01-05T12:10:43;19.67;;;7.40;;
10277;SDS011;5184;51.376;7.148;2023-01-05T12:13:14;26.43;;;7.70;;
10277;SDS011;5184;51.376;7.148;2023-01-05T12:15:41;21.40;;;7.03;;
10277;SDS011;5184;51.376;7.148;2023-01-05T12:21:04;23.47;;;7.70;;
10277;SDS011;5184;51.376;7.148;2023-01-05T12:23:34;23.10;;;7.60;;
10277;SDS011;5184;51.376;7.148;2023-01-05T12:26:03;25.23;;;8.47;;
10277;SDS011;5184;51.376;7.148;2023-01-05T12:28:37;22.67;;;6.63;;
10277;SDS011;5184;51.376;7.148;2023-01-05T12:31:02;21.50;;;6.83;;
10277;SDS011;5184;51.376;7.148;2023-01-05T12:33:49;26.70;;;8.07;;
10277;SDS011;5184;51.376;7.148;2023-01-05T12:36:28;20.23;;;7.67;;
10277;SDS011;5184;51.376;7.148;2023-01-05T12:38:59;26.10;;;8.07;;
10277;SDS011;5184;51.376;7.148;2023-01-05T12:41:25;27.97;;;8.23;;
10277;SDS011;5184;51.376;7.148;2023-01-05T12:43:59;22.77;;;7.83;;
10277;SDS011;5184;51.376;7.148;2023-01-05T12:46:44;21.07;;;7.30;;
10277;SDS011;5184;51.376;7.148;2023-01-05T12:49:11;21.37;;;7.27;;
10277;SDS011;5184;51.376;7.148;2023-01-05T12:51:42;24.27;;;7.63;;
10277;SDS011;5184;51.376;7.148;2023-01-05T12:54:17;24.10;;;7.47;;
10277;SDS011;5184;51.376;7.148;2023-01-05T12:57:00;22.80;;;7.27;;
10277;SDS011;5184;51.376;7.148;2023-01-05T12:59:27;26.33;;;8.20;;
10277;SDS011;5184;51.376;7.148;2023-01-05T13:01:55;22.73;;;7.93;;
10277;SDS011;5184;51.376;7.148;2023-01-05T13:07:05;16.67;;;6.40;;
10277;SDS011;5184;51.376;7.148;2023-01-05T13:09:30;21.50;;;6.80;;
10277;SDS011;5184;51.376;7.148;2023-01-05T13:11:58;22.33;;;7.53;;
10277;SDS011;5184;51.376;7.148;2023-01-05T13:14:26;18.90;;;6.83;;
10277;SDS011;5184;51.376;7.148;2023-01-05T13:16:53;20.10;;;6.60;;
10277;SDS011;5184;51.376;7.148;2023-01-05T13:19:27;23.60;;;7.50;;
10277;SDS011;5184;51.376;7.148;2023-01-05T13:21:56;17.47;;;6.70;;
10277;SDS011;5184;51.376;7.148;2023-01-05T13:24:28;27.10;;;7.07;;
10277;SDS011;5184;51.376;7.148;2023-01-05T13:26:55;22.23;;;7.03;;
10277;SDS011;5184;51.376;7.148;2023-01-05T13:29:24;19.57;;;6.90;;
10277;SDS011;5184;51.376;7.148;2023-01-05T13:42:35;22.70;;;7.03;;
10277;SDS011;5184;51.376;7.148;2023-01-05T13:45:25;18.50;;;6.50;;
10277;SDS011;5184;51.376;7.148;2023-01-05T13:48:08;16.60;;;5.63;;
10277;SDS011;5184;51.376;7.148;2023-01-05T13:50:40;21.97;;;6.93;;
10277;SDS011;5184;51.376;7.148;2023-01-05T13:53:19;18.23;;;6.53;;
10277;SDS011;5184;51.376;7.148;2023-01-05T13:55:48;20.33;;;6.80;;
10277;SDS011;5184;51.376;7.148;2023-01-05T14:01:02;20.50;;;6.53;;
10277;SDS011;5184;51.376;7.148;2023-01-05T14:03:28;19.87;;;6.30;;
10277;SDS011;5184;51.376;7.148;2023-01-05T14:05:55;18.37;;;6.50;;
10277;SDS011;5184;51.376;7.148;2023-01-05T14:08:22;23.23;;;7.00;;
10277;SDS011;5184;51.376;7.148;2023-01-05T14:13:39;19.37;;;7.57;;
10277;SDS011;5184;51.376;7.148;2023-01-05T14:19:07;23.30;;;7.33;;
10277;SDS011;5184;51.376;7.148;2023-01-05T14:24:00;16.10;;;6.83;;
10277;SDS011;5184;51.376;7.148;2023-01-05T14:29:06;19.43;;;7.00;;
10277;SDS011;5184;51.376;7.148;2023-01-05T14:31:35;18.67;;;7.23;;
10277;SDS011;5184;51.376;7.148;2023-01-05T14:34:03;20.20;;;7.20;;
10277;SDS011;5184;51.376;7.148;2023-01-05T14:36:33;15.00;;;5.97;;
10277;SDS011;5184;51.376;7.148;2023-01-05T14:39:00;17.23;;;6.57;;
10277;SDS011;5184;51.376;7.148;2023-01-05T14:41:28;18.50;;;6.60;;
10277;SDS011;5184;51.376;7.148;2023-01-05T14:43:56;19.37;;;7.10;;
10277;SDS011;5184;51.376;7.148;2023-01-05T14:46:22;13.80;;;6.07;;
10277;SDS011;5184;51.376;7.148;2023-01-05T14:51:24;15.40;;;6.80;;
10277;SDS011;5184;51.376;7.148;2023-01-05T14:53:55;15.67;;;5.80;;
10277;SDS011;5184;51.376;7.148;2023-01-05T14:56:22;18.57;;;6.27;;
10277;SDS011;5184;51.376;7.148;2023-01-05T14:58:53;17.93;;;6.73;;
10277;SDS011;5184;51.376;7.148;2023-01-05T15:01:22;19.93;;;6.50;;
10277;SDS011;5184;51.376;7.148;2023-01-05T15:03:50;21.40;;;6.97;;
10277;SDS011;5184;51.376;7.148;2023-01-05T15:06:21;18.17;;;6.53;;
10277;SDS011;5184;51.376;7.148;2023-01-05T15:11:49;19.97;;;6.90;;
10277;SDS011;5184;51.376;7.148;2023-01-05T15:14:27;16.33;;;5.87;;
10277;SDS011;5184;51.376;7.148;2023-01-05T15:17:32;15.17;;;5.90;;
10277;SDS011;5184;51.376;7.148;2023-01-05T15:20:03;18.73;;;6.33;;
10277;SDS011;5184;51.376;7.148;2023-01-05T15:22:47;19.53;;;6.37;;
10277;SDS011;5184;51.376;7.148;2023-01-05T15:28:27;16.47;;;6.13;;
10277;SDS011;5184;51.376;7.148;2023-01-05T15:30:46;21.43;;;6.60;;
10277;SDS011;5184;51.376;7.148;2023-01-05T15:33:34;14.10;;;5.90;;
10277;SDS011;5184;51.376;7.148;2023-01-05T15:36:01;19.47;;;6.10;;
10277;SDS011;5184;51.376;7.148;2023-01-05T15:38:29;19.17;;;7.17;;
10277;SDS011;5184;51.376;7.148;2023-01-05T15:40:58;18.90;;;6.50;;
10277;SDS011;5184;51.376;7.148;2023-01-05T15:43:29;22.53;;;6.50;;
10277;SDS011;5184;51.376;7.148;2023-01-05T15:45:56;14.20;;;5.80;;
10277;SDS011;5184;51.376;7.148;2023-01-05T15:48:25;19.17;;;6.20;;
10277;SDS011;5184;51.376;7.148;2023-01-05T15:50:51;16.03;;;5.93;;